createdAt,value
2022-12-31T00:02:21.296Z,20.97
2022-12-31T00:04:51.202Z,20.96
2022-12-31T00:07:23.227Z,20.97
2022-12-31T00:09:53.216Z,20.96
2022-12-31T00:12:23.662Z,20.96
2022-12-31T00:14:53.392Z,20.99
2022-12-31T00:17:23.439Z,20.96
2022-12-31T00:19:53.922Z,20.94
2022-12-31T00:22:25.920Z,20.93
2022-12-31T00:24:56.115Z,20.90
2022-12-31T00:27:26.115Z,20.87
2022-12-31T00:29:59.506Z,20.84
2022-12-31T00:32:34.550Z,20.81
2022-12-31T00:35:04.575Z,20.78
2022-12-31T00:37:36.921Z,20.77
2022-12-31T00:40:08.352Z,20.75
2022-12-31T00:42:38.748Z,20.75
2022-12-31T00:45:10.598Z,20.75
2022-12-31T00:47:41.179Z,20.75
2022-12-31T00:50:11.866Z,20.77
2022-12-31T00:52:44.005Z,20.77
2022-12-31T00:55:14.528Z,20.79
2022-12-31T00:57:44.982Z,20.79
2022-12-31T01:00:16.778Z,20.82
2022-12-31T01:02:46.938Z,20.84
2022-12-31T01:05:16.925Z,20.86
2022-12-31T01:07:48.720Z,20.88
2022-12-31T01:10:39.634Z,20.89
2022-12-31T01:13:10.452Z,20.91
2022-12-31T01:15:42.196Z,20.92
2022-12-31T01:18:13.363Z,20.94
2022-12-31T01:20:46.234Z,20.96
2022-12-31T01:23:18.771Z,20.97
2022-12-31T01:25:48.516Z,20.99
2022-12-31T01:28:18.238Z,21.00
2022-12-31T01:30:48.560Z,21.03
2022-12-31T01:33:18.611Z,21.04
2022-12-31T01:35:49.012Z,21.05
2022-12-31T01:38:21.350Z,21.07
2022-12-31T01:40:51.694Z,21.07
2022-12-31T01:43:23.207Z,21.09
2022-12-31T01:45:57.386Z,21.10
2022-12-31T01:48:30.530Z,21.09
2022-12-31T01:51:01.119Z,21.09
2022-12-31T01:53:34.417Z,21.09
2022-12-31T01:56:06.654Z,21.09
2022-12-31T01:58:45.624Z,21.09
2022-12-31T02:01:24.282Z,21.08
2022-12-31T02:03:55.938Z,21.08
2022-12-31T02:06:33.328Z,21.09
2022-12-31T02:09:05.433Z,21.08
2022-12-31T02:11:38.517Z,21.09
2022-12-31T02:14:13.531Z,21.08
2022-12-31T02:16:55.374Z,21.08
2022-12-31T02:20:21.496Z,21.06
2022-12-31T02:23:33.380Z,21.04
2022-12-31T02:26:56.737Z,21.03
2022-12-31T02:30:19.575Z,21.02
2022-12-31T02:33:16.909Z,21.01
2022-12-31T02:35:54.651Z,20.99
2022-12-31T02:38:30.568Z,21.01
2022-12-31T02:41:01.398Z,21.01
2022-12-31T02:43:32.159Z,21.01
2022-12-31T02:46:14.326Z,21.00
2022-12-31T02:48:58.454Z,21.00
2022-12-31T02:51:45.479Z,20.98
2022-12-31T02:54:32.272Z,20.97
2022-12-31T02:57:14.910Z,20.96
2022-12-31T03:00:13.782Z,20.96
2022-12-31T03:02:47.424Z,20.94
2022-12-31T03:05:25.544Z,20.93
2022-12-31T03:07:57.376Z,20.91
2022-12-31T03:10:27.762Z,20.90
2022-12-31T03:12:56.797Z,20.89
2022-12-31T03:15:30.148Z,20.88
2022-12-31T03:18:06.853Z,20.86
2022-12-31T03:20:58.424Z,20.84
2022-12-31T03:23:32.673Z,20.79
2022-12-31T03:26:02.450Z,20.77
2022-12-31T03:28:33.680Z,20.75
2022-12-31T03:31:06.444Z,20.72
2022-12-31T03:33:39.641Z,20.71
2022-12-31T03:36:16.933Z,20.70
2022-12-31T03:38:52.473Z,20.70
2022-12-31T03:41:23.130Z,20.71
2022-12-31T03:43:53.597Z,20.70
2022-12-31T03:46:23.932Z,20.71
2022-12-31T03:48:54.176Z,20.70
2022-12-31T03:51:25.507Z,20.68
2022-12-31T03:53:55.648Z,20.67
2022-12-31T03:56:26.021Z,20.67
2022-12-31T03:58:56.466Z,20.67
2022-12-31T04:01:26.581Z,20.67
2022-12-31T04:03:56.579Z,20.67
2022-12-31T04:06:28.717Z,20.67
2022-12-31T04:08:59.105Z,20.64
2022-12-31T04:11:29.289Z,20.65
2022-12-31T04:14:00.350Z,20.64
2022-12-31T04:16:31.026Z,20.64
2022-12-31T04:19:01.007Z,20.65
2022-12-31T04:21:35.253Z,20.65
2022-12-31T04:24:06.149Z,20.65
2022-12-31T04:26:37.732Z,20.67
2022-12-31T04:29:08.100Z,20.67
2022-12-31T04:31:37.964Z,20.67
2022-12-31T04:34:08.485Z,20.66
2022-12-31T04:36:40.688Z,20.67
2022-12-31T04:39:10.741Z,20.66
2022-12-31T04:41:40.955Z,20.64
2022-12-31T04:44:11.097Z,20.62
2022-12-31T04:46:41.008Z,20.60
2022-12-31T04:49:11.026Z,20.59
2022-12-31T04:51:43.662Z,20.58
2022-12-31T04:54:14.234Z,20.59
2022-12-31T04:56:44.544Z,20.59
2022-12-31T04:59:14.955Z,20.57
2022-12-31T05:01:45.455Z,20.57
2022-12-31T05:04:15.609Z,20.55
2022-12-31T05:06:47.487Z,20.54
2022-12-31T05:09:18.113Z,20.53
2022-12-31T05:11:48.492Z,20.52
2022-12-31T05:14:19.211Z,20.52
2022-12-31T05:16:49.296Z,20.52
2022-12-31T05:19:19.467Z,20.52
2022-12-31T05:22:04.712Z,20.52
2022-12-31T05:24:35.199Z,20.53
2022-12-31T05:27:05.382Z,20.53
2022-12-31T05:29:36.112Z,20.55
2022-12-31T05:32:06.477Z,20.57
2022-12-31T05:34:36.902Z,20.61
2022-12-31T05:37:09.209Z,20.61
2022-12-31T05:39:38.966Z,20.62
2022-12-31T05:42:09.199Z,20.63
2022-12-31T05:44:38.871Z,20.65
2022-12-31T05:47:08.739Z,20.65
2022-12-31T05:49:38.842Z,20.68
2022-12-31T05:52:12.490Z,20.70
2022-12-31T05:54:42.708Z,20.72
2022-12-31T05:57:13.461Z,20.75
2022-12-31T05:59:43.701Z,20.78
2022-12-31T06:02:13.860Z,20.82
2022-12-31T06:04:44.235Z,20.85
2022-12-31T06:07:16.214Z,20.89
2022-12-31T06:09:46.510Z,20.94
2022-12-31T06:12:16.910Z,20.97
2022-12-31T06:14:47.398Z,21.01
2022-12-31T06:17:18.119Z,21.11
2022-12-31T06:19:49.597Z,21.20
2022-12-31T06:22:21.403Z,21.35
2022-12-31T06:24:51.805Z,21.54
2022-12-31T06:27:22.245Z,21.76
2022-12-31T06:29:52.439Z,21.97
2022-12-31T06:32:22.309Z,22.19
2022-12-31T06:34:52.008Z,22.42
2022-12-31T06:37:24.056Z,22.65
2022-12-31T06:39:53.668Z,22.85
2022-12-31T06:42:24.149Z,23.06
2022-12-31T06:44:54.478Z,23.24
2022-12-31T06:47:24.358Z,23.43
2022-12-31T06:49:54.733Z,23.62
2022-12-31T06:52:26.721Z,23.82
2022-12-31T06:54:57.089Z,24.02
2022-12-31T06:57:28.292Z,24.20
2022-12-31T06:59:59.323Z,24.38
2022-12-31T07:03:13.559Z,24.60
2022-12-31T07:05:53.164Z,24.77
2022-12-31T07:08:49.044Z,24.97
2022-12-31T07:11:27.928Z,25.15
2022-12-31T07:14:13.633Z,25.34
2022-12-31T07:17:04.038Z,25.53
2022-12-31T07:19:57.690Z,25.71
2022-12-31T07:22:29.322Z,25.88
2022-12-31T07:25:02.852Z,26.05
2022-12-31T07:28:08.597Z,26.28
2022-12-31T07:30:52.089Z,26.44
2022-12-31T07:33:42.886Z,26.60
2022-12-31T07:36:32.392Z,26.75
2022-12-31T07:39:12.260Z,26.92
2022-12-31T07:41:58.133Z,27.06
2022-12-31T07:45:01.061Z,27.22
2022-12-31T07:47:32.186Z,27.36
2022-12-31T07:50:02.709Z,27.53
2022-12-31T07:52:33.831Z,27.71
2022-12-31T07:55:03.419Z,27.88
2022-12-31T07:57:52.303Z,28.11
2022-12-31T08:00:24.378Z,28.25
2022-12-31T08:03:19.685Z,28.42
2022-12-31T08:06:02.575Z,28.59
2022-12-31T08:08:43.418Z,28.76
2022-12-31T08:11:28.090Z,28.95
2022-12-31T08:14:05.030Z,29.15
2022-12-31T08:16:35.497Z,29.35
2022-12-31T08:19:06.538Z,29.53
2022-12-31T08:21:49.093Z,29.69
2022-12-31T08:24:31.901Z,29.87
2022-12-31T08:27:15.686Z,30.09
2022-12-31T08:30:00.453Z,30.32
2022-12-31T08:32:43.606Z,30.53
2022-12-31T08:35:35.194Z,30.72
2022-12-31T08:38:17.119Z,30.89
2022-12-31T08:41:01.953Z,31.07
2022-12-31T08:43:52.887Z,31.26
2022-12-31T08:46:33.854Z,31.49
2022-12-31T08:49:04.327Z,31.65
2022-12-31T08:51:35.280Z,31.73
2022-12-31T08:54:06.445Z,31.72
2022-12-31T08:56:50.302Z,31.68
2022-12-31T08:59:40.914Z,31.56
2022-12-31T09:03:00.473Z,31.39
2022-12-31T09:05:42.888Z,31.19
2022-12-31T09:08:27.827Z,31.01
2022-12-31T09:11:06.759Z,30.83
2022-12-31T09:13:56.879Z,30.65
2022-12-31T09:16:40.832Z,30.40
2022-12-31T09:19:14.218Z,30.17
2022-12-31T09:21:46.350Z,29.99
2022-12-31T09:24:18.846Z,29.80
2022-12-31T09:27:06.941Z,29.64
2022-12-31T09:29:56.455Z,29.46
2022-12-31T09:32:43.717Z,29.31
2022-12-31T09:35:32.448Z,29.15
2022-12-31T09:38:12.836Z,28.99
2022-12-31T09:41:00.809Z,28.92
2022-12-31T09:44:27.919Z,28.84
2022-12-31T09:48:02.005Z,28.70
2022-12-31T09:51:06.015Z,28.56
2022-12-31T09:54:22.023Z,28.38
2022-12-31T09:57:21.232Z,28.24
2022-12-31T10:00:04.851Z,28.13
2022-12-31T10:03:18.921Z,27.97
2022-12-31T10:06:20.771Z,27.84
2022-12-31T10:09:34.175Z,27.70
2022-12-31T10:12:44.853Z,27.57
2022-12-31T10:16:07.600Z,27.42
2022-12-31T10:19:11.743Z,27.32
2022-12-31T10:22:00.905Z,27.24
2022-12-31T10:24:54.449Z,27.18
2022-12-31T10:27:48.711Z,27.12
2022-12-31T10:30:21.582Z,27.08
2022-12-31T10:33:11.683Z,27.04
2022-12-31T10:35:51.697Z,27.00
2022-12-31T10:38:38.565Z,26.94
2022-12-31T10:42:06.145Z,26.90
2022-12-31T10:45:34.276Z,26.81
2022-12-31T10:48:45.977Z,26.76
2022-12-31T10:52:10.976Z,26.67
2022-12-31T10:55:40.517Z,26.56
2022-12-31T10:59:03.416Z,26.49
2022-12-31T11:01:51.079Z,26.45
2022-12-31T11:05:15.343Z,26.36
2022-12-31T11:08:09.183Z,26.32
2022-12-31T11:11:30.936Z,26.27
2022-12-31T11:14:44.327Z,26.21
2022-12-31T11:17:34.916Z,26.16
2022-12-31T11:20:44.754Z,26.09
2022-12-31T11:23:36.785Z,26.07
2022-12-31T11:26:27.618Z,26.05
2022-12-31T11:29:26.921Z,26.02
2022-12-31T11:32:16.406Z,25.99
2022-12-31T11:35:30.870Z,25.95
2022-12-31T11:38:18.131Z,25.92
2022-12-31T11:41:03.000Z,25.91
2022-12-31T11:43:41.816Z,25.89
2022-12-31T11:47:00.615Z,25.86
2022-12-31T11:49:54.195Z,25.83
2022-12-31T11:52:53.616Z,25.80
2022-12-31T11:55:41.807Z,25.77
2022-12-31T11:58:18.477Z,25.75
2022-12-31T12:00:58.920Z,25.72
2022-12-31T12:03:30.270Z,25.67
2022-12-31T12:06:01.640Z,25.64
2022-12-31T12:08:35.300Z,25.63
2022-12-31T12:11:19.221Z,25.61
2022-12-31T12:13:49.718Z,25.57
2022-12-31T12:16:24.984Z,25.56
2022-12-31T12:19:06.452Z,25.54
2022-12-31T12:21:37.512Z,25.50
2022-12-31T12:24:22.913Z,25.49
2022-12-31T12:26:53.892Z,25.49
2022-12-31T12:29:26.470Z,25.50
2022-12-31T12:32:04.811Z,25.48
2022-12-31T12:34:40.900Z,25.47
2022-12-31T12:37:32.977Z,25.46
2022-12-31T12:40:05.999Z,25.44
2022-12-31T12:42:37.503Z,25.40
2022-12-31T12:45:17.450Z,25.39
2022-12-31T12:47:56.967Z,25.38
2022-12-31T12:50:38.885Z,25.36
2022-12-31T12:53:31.343Z,25.34
2022-12-31T12:56:19.129Z,25.30
2022-12-31T12:59:12.318Z,25.29
2022-12-31T13:01:56.030Z,25.27
2022-12-31T13:05:05.805Z,25.27
2022-12-31T13:07:54.664Z,25.25
2022-12-31T13:10:52.439Z,25.24
2022-12-31T13:13:34.879Z,25.24
2022-12-31T13:16:17.621Z,25.24
2022-12-31T13:19:01.330Z,25.22
2022-12-31T13:21:49.563Z,25.21
2022-12-31T13:24:46.253Z,25.18
2022-12-31T13:27:28.030Z,25.15
2022-12-31T13:30:04.235Z,25.13
2022-12-31T13:32:45.084Z,25.10
2022-12-31T13:35:30.385Z,25.09
2022-12-31T13:38:09.170Z,25.07
2022-12-31T13:40:52.272Z,25.03
2022-12-31T13:43:35.889Z,25.00
2022-12-31T13:46:18.989Z,24.96
2022-12-31T13:48:55.978Z,24.92
2022-12-31T13:51:43.034Z,24.92
2022-12-31T13:54:36.379Z,24.89
2022-12-31T13:57:20.061Z,24.86
2022-12-31T13:59:59.486Z,24.84
2022-12-31T14:02:40.312Z,24.80
2022-12-31T14:05:24.335Z,24.76
2022-12-31T14:07:59.955Z,24.73
2022-12-31T14:10:45.384Z,24.72
2022-12-31T14:14:00.560Z,24.70
2022-12-31T14:16:46.097Z,24.68
2022-12-31T14:19:34.183Z,24.67
2022-12-31T14:22:19.190Z,24.64
2022-12-31T14:24:53.093Z,24.63
2022-12-31T14:27:32.600Z,24.61
2022-12-31T14:30:08.367Z,24.60
2022-12-31T14:33:14.653Z,24.58
2022-12-31T14:36:22.262Z,24.53
2022-12-31T14:39:28.028Z,24.49
2022-12-31T14:42:21.024Z,24.46
2022-12-31T14:45:20.156Z,24.43
2022-12-31T14:47:58.327Z,24.40
2022-12-31T14:50:32.155Z,24.37
2022-12-31T14:53:20.214Z,24.34
2022-12-31T14:56:01.968Z,24.32
2022-12-31T14:58:38.789Z,24.30
2022-12-31T15:01:26.641Z,24.27
2022-12-31T15:04:00.121Z,24.23
2022-12-31T15:06:57.158Z,24.22
2022-12-31T15:09:52.811Z,24.20
2022-12-31T15:12:51.350Z,24.17
2022-12-31T15:15:40.799Z,24.13
2022-12-31T15:18:34.160Z,24.11
2022-12-31T15:21:49.466Z,24.08
2022-12-31T15:24:25.644Z,24.07
2022-12-31T15:26:58.949Z,24.06
2022-12-31T15:29:34.467Z,24.05
2022-12-31T15:32:10.215Z,24.03
2022-12-31T15:34:42.452Z,24.01
2022-12-31T15:37:33.897Z,23.98
2022-12-31T15:40:25.463Z,23.98
2022-12-31T15:43:03.488Z,23.97
2022-12-31T15:45:40.730Z,23.97
2022-12-31T15:48:22.453Z,23.97
2022-12-31T15:51:00.322Z,23.98
2022-12-31T15:53:36.065Z,24.00
2022-12-31T15:56:09.751Z,24.00
2022-12-31T15:58:40.635Z,24.02
2022-12-31T16:01:19.008Z,24.04
2022-12-31T16:03:54.091Z,24.03
2022-12-31T16:06:30.129Z,24.03
2022-12-31T16:09:01.639Z,24.03
2022-12-31T16:11:37.979Z,24.03
2022-12-31T16:14:08.442Z,24.03
2022-12-31T16:16:38.308Z,24.02
2022-12-31T16:19:30.650Z,24.03
2022-12-31T16:22:11.654Z,24.01
2022-12-31T16:25:02.914Z,24.00
2022-12-31T16:27:33.978Z,23.99
2022-12-31T16:30:07.519Z,23.99
2022-12-31T16:32:41.105Z,23.97
2022-12-31T16:35:27.004Z,23.97
2022-12-31T16:38:17.246Z,23.95
2022-12-31T16:41:09.628Z,23.94
2022-12-31T16:43:41.295Z,23.91
2022-12-31T16:46:20.624Z,23.91
2022-12-31T16:48:56.556Z,23.88
2022-12-31T16:51:31.930Z,23.87
2022-12-31T16:54:05.424Z,23.86
2022-12-31T16:56:40.806Z,23.85
2022-12-31T16:59:24.190Z,23.84
2022-12-31T17:01:56.307Z,23.82
2022-12-31T17:04:27.803Z,23.81
2022-12-31T17:07:18.141Z,23.79
2022-12-31T17:09:50.009Z,23.77
2022-12-31T17:12:21.326Z,23.76
2022-12-31T17:14:53.750Z,23.74
2022-12-31T17:17:28.434Z,23.74
2022-12-31T17:20:03.152Z,23.72
2022-12-31T17:22:38.340Z,23.71
2022-12-31T17:25:25.348Z,23.70
2022-12-31T17:28:00.580Z,23.66
2022-12-31T17:30:42.861Z,23.64
2022-12-31T17:33:33.684Z,23.63
2022-12-31T17:36:26.239Z,23.59
2022-12-31T17:38:56.253Z,23.56
2022-12-31T17:41:30.425Z,23.55
2022-12-31T17:44:01.097Z,23.54
2022-12-31T17:46:32.153Z,23.53
2022-12-31T17:49:05.419Z,23.52
2022-12-31T17:51:36.781Z,23.50
2022-12-31T17:54:14.365Z,23.49
2022-12-31T17:56:47.049Z,23.47
2022-12-31T17:59:21.336Z,23.46
2022-12-31T18:01:52.594Z,23.44
2022-12-31T18:04:23.419Z,23.42
2022-12-31T18:06:53.795Z,23.40
2022-12-31T18:09:24.236Z,23.39
2022-12-31T18:12:01.401Z,23.39
2022-12-31T18:14:32.144Z,23.37
2022-12-31T18:17:04.305Z,23.36
2022-12-31T18:22:25.374Z,23.30
2022-12-31T18:24:56.826Z,23.29
2022-12-31T18:27:29.579Z,23.27
2022-12-31T18:30:04.430Z,23.24
2022-12-31T18:32:36.997Z,23.24
2022-12-31T18:35:33.245Z,23.22
2022-12-31T18:38:05.398Z,23.19
2022-12-31T18:40:35.881Z,23.19
2022-12-31T18:43:08.514Z,23.19
2022-12-31T18:45:38.911Z,23.18
2022-12-31T18:48:09.735Z,23.15
2022-12-31T18:50:40.566Z,23.14
2022-12-31T18:53:17.246Z,23.13
2022-12-31T18:55:51.272Z,23.12
2022-12-31T18:58:23.931Z,23.10
2022-12-31T19:00:55.339Z,23.08
2022-12-31T19:03:29.731Z,23.07
2022-12-31T19:06:00.322Z,23.06
2022-12-31T19:08:32.742Z,23.05
2022-12-31T19:11:04.161Z,23.05
2022-12-31T19:13:36.097Z,23.03
2022-12-31T19:16:08.223Z,23.02
2022-12-31T19:18:39.099Z,23.00
2022-12-31T19:21:14.173Z,22.98
2022-12-31T19:23:45.049Z,22.97
2022-12-31T19:26:19.847Z,22.95
2022-12-31T19:28:53.152Z,22.93
2022-12-31T19:31:23.573Z,22.91
2022-12-31T19:33:54.326Z,22.89
2022-12-31T19:36:25.018Z,22.87
2022-12-31T19:38:55.308Z,22.86
2022-12-31T19:41:25.789Z,22.84
2022-12-31T19:43:57.905Z,22.83
2022-12-31T19:46:28.742Z,22.81
2022-12-31T19:48:58.769Z,22.80
2022-12-31T19:51:29.477Z,22.80
2022-12-31T19:53:59.955Z,22.79
2022-12-31T19:56:29.948Z,22.76
2022-12-31T19:59:08.329Z,22.75
2022-12-31T20:01:39.363Z,22.74
2022-12-31T20:04:09.860Z,22.74
2022-12-31T20:06:40.436Z,22.72
2022-12-31T20:09:10.833Z,22.71
2022-12-31T20:11:41.387Z,22.71
2022-12-31T20:14:13.381Z,22.70
2022-12-31T20:16:43.935Z,22.71
2022-12-31T20:19:15.210Z,22.70
2022-12-31T20:21:45.442Z,22.69
2022-12-31T20:24:15.992Z,22.69
2022-12-31T20:26:46.228Z,22.69
2022-12-31T20:29:18.234Z,22.68
2022-12-31T20:31:48.208Z,22.66
2022-12-31T20:34:18.671Z,22.66
2022-12-31T20:36:49.343Z,22.65
2022-12-31T20:39:19.825Z,22.65
2022-12-31T20:41:50.644Z,22.63
2022-12-31T20:44:22.583Z,22.62
2022-12-31T20:46:52.587Z,22.62
2022-12-31T20:49:44.495Z,22.60
2022-12-31T20:52:13.882Z,22.58
2022-12-31T20:54:44.151Z,22.57
2022-12-31T20:57:14.544Z,22.58
2022-12-31T20:59:46.928Z,22.57
2022-12-31T21:02:21.369Z,22.55
2022-12-31T21:04:52.367Z,22.54
2022-12-31T21:07:23.156Z,22.52
2022-12-31T21:09:53.523Z,22.52
2022-12-31T21:12:40.611Z,22.52
2022-12-31T21:15:15.524Z,22.50
2022-12-31T21:17:46.025Z,22.49
2022-12-31T21:20:17.173Z,22.50
2022-12-31T21:22:47.576Z,22.49
2022-12-31T21:25:17.688Z,22.47
2022-12-31T21:27:48.088Z,22.47
2022-12-31T21:30:20.697Z,22.46
2022-12-31T21:32:52.165Z,22.44
2022-12-31T21:38:13.136Z,22.42
2022-12-31T21:40:45.206Z,22.42
2022-12-31T21:43:16.645Z,22.41
2022-12-31T21:45:49.259Z,22.41
2022-12-31T21:48:21.081Z,22.40
2022-12-31T21:50:52.559Z,22.39
2022-12-31T21:53:32.122Z,22.38
2022-12-31T21:56:12.805Z,22.37
2022-12-31T21:58:45.922Z,22.37
2022-12-31T22:01:39.987Z,22.36
2022-12-31T22:04:28.256Z,22.34
2022-12-31T22:07:00.146Z,22.32
2022-12-31T22:09:30.813Z,22.31
2022-12-31T22:12:01.141Z,22.30
2022-12-31T22:14:31.686Z,22.30
2022-12-31T22:17:04.050Z,22.29
2022-12-31T22:19:54.640Z,22.27
2022-12-31T22:22:24.881Z,22.26
2022-12-31T22:24:55.440Z,22.25
2022-12-31T22:27:29.044Z,22.25
2022-12-31T22:30:00.627Z,22.23
2022-12-31T22:32:32.482Z,22.22
2022-12-31T22:35:02.794Z,22.19
2022-12-31T22:37:56.350Z,22.17
2022-12-31T22:40:23.114Z,22.14
2022-12-31T22:42:52.967Z,22.12
2022-12-31T22:45:23.416Z,22.12
2022-12-31T22:47:54.683Z,22.12
2022-12-31T22:50:24.460Z,22.12
2022-12-31T22:52:54.303Z,22.13
2022-12-31T22:55:24.867Z,22.14
2022-12-31T22:57:54.797Z,22.14
2022-12-31T23:00:41.676Z,22.15
2022-12-31T23:03:14.378Z,22.14
2022-12-31T23:05:44.944Z,22.14
2022-12-31T23:08:22.318Z,22.15
2022-12-31T23:11:00.125Z,22.15
2022-12-31T23:13:51.197Z,22.14
2022-12-31T23:16:39.027Z,22.12
2022-12-31T23:19:28.246Z,22.13
2022-12-31T23:22:15.225Z,22.12
2022-12-31T23:24:45.785Z,22.11
2022-12-31T23:27:16.134Z,22.12
2022-12-31T23:29:47.654Z,22.13
2022-12-31T23:32:18.662Z,22.13
2022-12-31T23:34:50.179Z,22.12
2022-12-31T23:37:20.541Z,22.12
2022-12-31T23:39:50.960Z,22.12
2022-12-31T23:42:20.651Z,22.10
2022-12-31T23:44:50.927Z,22.08
2022-12-31T23:47:21.085Z,22.07
2022-12-31T23:49:52.652Z,22.05
2022-12-31T23:52:23.343Z,22.02
2022-12-31T23:54:53.562Z,22.00
2022-12-31T23:57:24.180Z,22.00
2022-12-31T23:59:54.394Z,22.02
